sensor_id;sensor_type;location;lat;lon;timestamp;pressure;altitude;pressure_sealevel;temperature;humidity
72423;BME280;60413;55.658;37.498;2022-12-20T00:01:11;100020.50;;;-4.19;100.00
72423;BME280;60413;55.658;37.498;2022-12-20T00:03:37;100020.72;;;-4.11;100.00
72423;BME280;60413;55.658;37.498;2022-12-20T00:06:04;100037.25;;;-4.14;100.00
72423;BME280;60413;55.658;37.498;2022-12-20T00:08:30;100040.59;;;-4.02;100.00
72423;BME280;60413;55.658;37.498;2022-12-20T00:10:59;100006.25;;;-4.23;100.00
72423;BME280;60413;55.658;37.498;2022-12-20T00:13:25;100019.34;;;-4.15;100.00
72423;BME280;60413;55.658;37.498;2022-12-20T00:16:11;100002.50;;;-4.19;100.00
72423;BME280;60413;55.658;37.498;2022-12-20T00:18:39;100017.25;;;-4.21;100.00
72423;BME280;60413;55.658;37.498;2022-12-20T00:21:07;100016.66;;;-4.14;100.00
72423;BME280;60413;55.658;37.498;2022-12-20T00:23:34;100049.66;;;-4.07;100.00
72423;BME280;60413;55.658;37.498;2022-12-20T00:26:14;100026.72;;;-4.22;100.00
72423;BME280;60413;55.658;37.498;2022-12-20T00:28:43;99988.59;;;-4.39;100.00
72423;BME280;60413;55.658;37.498;2022-12-20T00:31:11;100015.97;;;-4.27;100.00
72423;BME280;60413;55.658;37.498;2022-12-20T00:33:39;100031.41;;;-4.27;100.00
72423;BME280;60413;55.658;37.498;2022-12-20T00:36:08;100024.38;;;-4.25;100.00
72423;BME280;60413;55.658;37.498;2022-12-20T00:38:34;100031.19;;;-4.24;100.00
72423;BME280;60413;55.658;37.498;2022-12-20T00:41:02;100015.50;;;-4.21;100.00
72423;BME280;60413;55.658;37.498;2022-12-20T00:43:29;99995.84;;;-4.22;100.00
72423;BME280;60413;55.658;37.498;2022-12-20T00:45:55;99974.94;;;-4.40;100.00
72423;BME280;60413;55.658;37.498;2022-12-20T00:48:21;99984.09;;;-4.47;100.00
72423;BME280;60413;55.658;37.498;2022-12-20T00:50:47;100009.09;;;-4.38;100.00
72423;BME280;60413;55.658;37.498;2022-12-20T00:53:13;100003.13;;;-4.38;100.00
72423;BME280;60413;55.658;37.498;2022-12-20T00:55:42;99972.66;;;-4.54;100.00
72423;BME280;60413;55.658;37.498;2022-12-20T00:58:09;99951.84;;;-4.62;100.00
72423;BME280;60413;55.658;37.498;2022-12-20T01:00:35;99975.16;;;-4.43;100.00
72423;BME280;60413;55.658;37.498;2022-12-20T01:03:02;99953.31;;;-4.49;100.00
72423;BME280;60413;55.658;37.498;2022-12-20T01:05:27;99955.09;;;-4.49;100.00
72423;BME280;60413;55.658;37.498;2022-12-20T01:07:53;99972.75;;;-4.56;100.00
72423;BME280;60413;55.658;37.498;2022-12-20T01:10:19;99970.09;;;-4.66;100.00
72423;BME280;60413;55.658;37.498;2022-12-20T01:12:45;99930.19;;;-4.60;100.00
72423;BME280;60413;55.658;37.498;2022-12-20T01:15:11;99952.19;;;-4.78;100.00
72423;BME280;60413;55.658;37.498;2022-12-20T01:17:37;99961.44;;;-4.76;100.00
72423;BME280;60413;55.658;37.498;2022-12-20T01:20:04;99947.41;;;-4.83;100.00
72423;BME280;60413;55.658;37.498;2022-12-20T01:22:30;99952.56;;;-4.83;100.00
72423;BME280;60413;55.658;37.498;2022-12-20T01:24:56;99962.50;;;-4.78;100.00
72423;BME280;60413;55.658;37.498;2022-12-20T01:27:22;99940.19;;;-4.89;100.00
72423;BME280;60413;55.658;37.498;2022-12-20T01:29:48;99949.97;;;-4.83;100.00
72423;BME280;60413;55.658;37.498;2022-12-20T01:32:16;99921.72;;;-4.94;100.00
72423;BME280;60413;55.658;37.498;2022-12-20T01:34:42;99913.78;;;-5.03;100.00
72423;BME280;60413;55.658;37.498;2022-12-20T01:37:08;99883.06;;;-5.15;100.00
72423;BME280;60413;55.658;37.498;2022-12-20T01:39:34;99914.72;;;-5.04;100.00
72423;BME280;60413;55.658;37.498;2022-12-20T01:42:00;99935.75;;;-4.98;100.00
72423;BME280;60413;55.658;37.498;2022-12-20T01:46:53;99927.22;;;-4.99;100.00
72423;BME280;60413;55.658;37.498;2022-12-20T01:49:32;99912.59;;;-4.98;100.00
72423;BME280;60413;55.658;37.498;2022-12-20T01:52:05;99922.53;;;-4.94;100.00
72423;BME280;60413;55.658;37.498;2022-12-20T01:54:37;99880.50;;;-5.15;100.00
72423;BME280;60413;55.658;37.498;2022-12-20T01:57:08;99929.41;;;-4.83;100.00
72423;BME280;60413;55.658;37.498;2022-12-20T01:59:38;99919.16;;;-4.94;100.00
72423;BME280;60413;55.658;37.498;2022-12-20T02:02:09;99922.66;;;-4.95;100.00
72423;BME280;60413;55.658;37.498;2022-12-20T02:04:35;99904.91;;;-5.21;100.00
72423;BME280;60413;55.658;37.498;2022-12-20T02:07:01;99906.66;;;-5.22;100.00
72423;BME280;60413;55.658;37.498;2022-12-20T02:09:29;99897.91;;;-5.19;100.00
72423;BME280;60413;55.658;37.498;2022-12-20T02:12:14;99930.59;;;-4.98;100.00
72423;BME280;60413;55.658;37.498;2022-12-20T02:17:43;99912.38;;;-5.18;100.00
72423;BME280;60413;55.658;37.498;2022-12-20T02:23:01;99905.97;;;-5.24;100.00
72423;BME280;60413;55.658;37.498;2022-12-20T02:31:04;99911.78;;;-5.22;100.00
72423;BME280;60413;55.658;37.498;2022-12-20T02:33:33;99894.41;;;-5.41;100.00
72423;BME280;60413;55.658;37.498;2022-12-20T02:36:02;99886.69;;;-5.52;100.00
72423;BME280;60413;55.658;37.498;2022-12-20T02:38:35;99903.25;;;-5.45;100.00
72423;BME280;60413;55.658;37.498;2022-12-20T02:41:09;99893.00;;;-5.56;100.00
72423;BME280;60413;55.658;37.498;2022-12-20T02:43:38;99899.03;;;-5.68;100.00
72423;BME280;60413;55.658;37.498;2022-12-20T02:46:25;99883.38;;;-5.88;100.00
72423;BME280;60413;55.658;37.498;2022-12-20T02:48:55;99885.34;;;-5.80;100.00
72423;BME280;60413;55.658;37.498;2022-12-20T02:51:25;99886.28;;;-5.92;100.00
72423;BME280;60413;55.658;37.498;2022-12-20T02:53:54;99846.94;;;-6.16;100.00
72423;BME280;60413;55.658;37.498;2022-12-20T02:56:26;99844.59;;;-6.19;100.00
72423;BME280;60413;55.658;37.498;2022-12-20T02:59:11;99830.91;;;-6.30;100.00
72423;BME280;60413;55.658;37.498;2022-12-20T03:01:49;99835.22;;;-6.31;100.00
72423;BME280;60413;55.658;37.498;2022-12-20T03:04:17;99838.72;;;-6.32;100.00
72423;BME280;60413;55.658;37.498;2022-12-20T03:07:11;99861.16;;;-6.23;100.00
72423;BME280;60413;55.658;37.498;2022-12-20T03:09:39;99852.72;;;-6.36;100.00
72423;BME280;60413;55.658;37.498;2022-12-20T03:12:06;99833.56;;;-6.67;100.00
72423;BME280;60413;55.658;37.498;2022-12-20T03:14:35;99824.59;;;-6.73;100.00
72423;BME280;60413;55.658;37.498;2022-12-20T03:17:04;99822.03;;;-6.73;100.00
72423;BME280;60413;55.658;37.498;2022-12-20T03:19:30;99815.16;;;-6.73;100.00
72423;BME280;60413;55.658;37.498;2022-12-20T03:21:57;99810.13;;;-6.74;100.00
72423;BME280;60413;55.658;37.498;2022-12-20T03:24:24;99823.22;;;-6.66;100.00
72423;BME280;60413;55.658;37.498;2022-12-20T03:26:54;99806.38;;;-6.81;100.00
72423;BME280;60413;55.658;37.498;2022-12-20T03:29:28;99837.81;;;-6.55;100.00
72423;BME280;60413;55.658;37.498;2022-12-20T03:31:54;99811.31;;;-6.67;100.00
72423;BME280;60413;55.658;37.498;2022-12-20T03:34:20;99822.66;;;-6.58;100.00
72423;BME280;60413;55.658;37.498;2022-12-20T03:36:46;99821.56;;;-6.67;100.00
72423;BME280;60413;55.658;37.498;2022-12-20T03:39:12;99794.03;;;-6.76;100.00
72423;BME280;60413;55.658;37.498;2022-12-20T03:41:39;99800.69;;;-6.74;100.00
72423;BME280;60413;55.658;37.498;2022-12-20T03:44:06;99817.28;;;-6.66;100.00
72423;BME280;60413;55.658;37.498;2022-12-20T03:46:32;99802.81;;;-6.67;100.00
72423;BME280;60413;55.658;37.498;2022-12-20T03:48:58;99802.31;;;-6.73;100.00
72423;BME280;60413;55.658;37.498;2022-12-20T03:51:24;99801.72;;;-6.76;100.00
72423;BME280;60413;55.658;37.498;2022-12-20T03:53:50;99787.16;;;-6.76;100.00
72423;BME280;60413;55.658;37.498;2022-12-20T03:56:17;99789.63;;;-6.74;100.00
72423;BME280;60413;55.658;37.498;2022-12-20T03:58:44;99771.13;;;-6.91;100.00
72423;BME280;60413;55.658;37.498;2022-12-20T04:01:23;99785.88;;;-6.81;100.00
72423;BME280;60413;55.658;37.498;2022-12-20T04:03:49;99780.13;;;-6.85;100.00
72423;BME280;60413;55.658;37.498;2022-12-20T04:06:16;99769.25;;;-7.00;100.00
72423;BME280;60413;55.658;37.498;2022-12-20T04:08:43;99761.19;;;-7.06;100.00
72423;BME280;60413;55.658;37.498;2022-12-20T04:11:10;99724.59;;;-7.33;100.00
72423;BME280;60413;55.658;37.498;2022-12-20T04:14:01;99748.75;;;-7.00;100.00
72423;BME280;60413;55.658;37.498;2022-12-20T04:16:28;99720.28;;;-7.08;100.00
72423;BME280;60413;55.658;37.498;2022-12-20T04:18:55;99722.84;;;-7.08;100.00
72423;BME280;60413;55.658;37.498;2022-12-20T04:21:31;99734.19;;;-6.99;100.00
72423;BME280;60413;55.658;37.498;2022-12-20T04:23:59;99715.38;;;-7.11;100.00
72423;BME280;60413;55.658;37.498;2022-12-20T04:26:35;99695.53;;;-7.20;100.00
72423;BME280;60413;55.658;37.498;2022-12-20T04:29:02;99733.63;;;-6.92;100.00
72423;BME280;60413;55.658;37.498;2022-12-20T04:31:29;99737.59;;;-6.87;100.00
72423;BME280;60413;55.658;37.498;2022-12-20T04:33:55;99733.41;;;-6.89;100.00
72423;BME280;60413;55.658;37.498;2022-12-20T04:36:21;99724.41;;;-6.94;100.00
72423;BME280;60413;55.658;37.498;2022-12-20T04:38:49;99737.13;;;-6.93;100.00
72423;BME280;60413;55.658;37.498;2022-12-20T04:41:15;99722.13;;;-7.10;100.00
72423;BME280;60413;55.658;37.498;2022-12-20T04:43:54;99736.75;;;-6.99;100.00
72423;BME280;60413;55.658;37.498;2022-12-20T04:46:25;99728.00;;;-6.97;100.00
72423;BME280;60413;55.658;37.498;2022-12-20T04:48:54;99695.28;;;-7.29;100.00
72423;BME280;60413;55.658;37.498;2022-12-20T04:51:20;99722.22;;;-7.12;100.00
72423;BME280;60413;55.658;37.498;2022-12-20T04:53:46;99699.72;;;-7.43;100.00
72423;BME280;60413;55.658;37.498;2022-12-20T04:56:22;99696.47;;;-7.46;100.00
72423;BME280;60413;55.658;37.498;2022-12-20T04:58:50;99710.34;;;-7.37;100.00
72423;BME280;60413;55.658;37.498;2022-12-20T05:01:17;99695.59;;;-7.57;100.00
72423;BME280;60413;55.658;37.498;2022-12-20T05:03:50;99662.69;;;-7.75;100.00
72423;BME280;60413;55.658;37.498;2022-12-20T05:06:17;99694.19;;;-7.61;100.00
72423;BME280;60413;55.658;37.498;2022-12-20T05:08:43;99728.72;;;-7.43;100.00
72423;BME280;60413;55.658;37.498;2022-12-20T05:11:12;99688.13;;;-7.60;100.00
72423;BME280;60413;55.658;37.498;2022-12-20T05:14:07;99703.75;;;-7.52;100.00
72423;BME280;60413;55.658;37.498;2022-12-20T05:16:36;99675.81;;;-7.79;100.00
72423;BME280;60413;55.658;37.498;2022-12-20T05:19:05;99643.50;;;-7.93;100.00
72423;BME280;60413;55.658;37.498;2022-12-20T05:21:39;99649.53;;;-7.94;100.00
72423;BME280;60413;55.658;37.498;2022-12-20T05:24:24;99721.38;;;-7.48;100.00
72423;BME280;60413;55.658;37.498;2022-12-20T05:27:16;99691.94;;;-7.42;100.00
72423;BME280;60413;55.658;37.498;2022-12-20T05:29:42;99647.06;;;-7.59;100.00
72423;BME280;60413;55.658;37.498;2022-12-20T05:32:09;99682.19;;;-7.37;100.00
72423;BME280;60413;55.658;37.498;2022-12-20T05:34:38;99696.00;;;-7.27;100.00
72423;BME280;60413;55.658;37.498;2022-12-20T05:37:05;99691.38;;;-7.21;100.00
72423;BME280;60413;55.658;37.498;2022-12-20T05:39:37;99680.84;;;-7.30;100.00
72423;BME280;60413;55.658;37.498;2022-12-20T05:42:15;99692.38;;;-7.24;100.00
72423;BME280;60413;55.658;37.498;2022-12-20T05:44:41;99674.56;;;-7.26;100.00
72423;BME280;60413;55.658;37.498;2022-12-20T05:47:07;99650.88;;;-7.40;100.00
72423;BME280;60413;55.658;37.498;2022-12-20T05:49:35;99664.88;;;-7.33;100.00
72423;BME280;60413;55.658;37.498;2022-12-20T05:52:03;99643.78;;;-7.37;100.00
72423;BME280;60413;55.658;37.498;2022-12-20T05:54:29;99660.75;;;-7.23;100.00
72423;BME280;60413;55.658;37.498;2022-12-20T05:57:03;99664.69;;;-7.19;100.00
72423;BME280;60413;55.658;37.498;2022-12-20T05:59:36;99671.31;;;-7.28;100.00
72423;BME280;60413;55.658;37.498;2022-12-20T06:02:04;99633.72;;;-7.51;100.00
72423;BME280;60413;55.658;37.498;2022-12-20T06:04:32;99616.44;;;-7.60;100.00
72423;BME280;60413;55.658;37.498;2022-12-20T06:07:01;99631.88;;;-7.49;100.00
72423;BME280;60413;55.658;37.498;2022-12-20T06:09:28;99662.88;;;-7.41;100.00
72423;BME280;60413;55.658;37.498;2022-12-20T06:12:05;99634.06;;;-7.56;100.00
72423;BME280;60413;55.658;37.498;2022-12-20T06:14:33;99638.19;;;-7.42;100.00
72423;BME280;60413;55.658;37.498;2022-12-20T06:16:59;99591.25;;;-7.78;100.00
72423;BME280;60413;55.658;37.498;2022-12-20T06:19:25;99642.31;;;-7.52;100.00
72423;BME280;60413;55.658;37.498;2022-12-20T06:21:53;99637.59;;;-7.46;100.00
72423;BME280;60413;55.658;37.498;2022-12-20T06:24:26;99638.97;;;-7.53;100.00
72423;BME280;60413;55.658;37.498;2022-12-20T06:26:52;99615.28;;;-7.68;100.00
72423;BME280;60413;55.658;37.498;2022-12-20T06:29:18;99646.91;;;-7.45;100.00
72423;BME280;60413;55.658;37.498;2022-12-20T06:32:22;99617.88;;;-7.56;100.00
72423;BME280;60413;55.658;37.498;2022-12-20T06:34:50;99571.91;;;-7.82;100.00
72423;BME280;60413;55.658;37.498;2022-12-20T06:37:17;99605.63;;;-7.64;100.00
72423;BME280;60413;55.658;37.498;2022-12-20T06:39:43;99630.28;;;-7.39;100.00
72423;BME280;60413;55.658;37.498;2022-12-20T06:42:12;99585.47;;;-7.69;100.00
72423;BME280;60413;55.658;37.498;2022-12-20T06:44:39;99603.94;;;-7.52;100.00
72423;BME280;60413;55.658;37.498;2022-12-20T06:47:08;99598.44;;;-7.59;100.00
72423;BME280;60413;55.658;37.498;2022-12-20T06:49:34;99609.78;;;-7.39;100.00
72423;BME280;60413;55.658;37.498;2022-12-20T06:52:10;99604.88;;;-7.53;100.00
72423;BME280;60413;55.658;37.498;2022-12-20T06:55:00;99622.91;;;-7.43;100.00
72423;BME280;60413;55.658;37.498;2022-12-20T06:57:28;99551.50;;;-7.71;100.00
72423;BME280;60413;55.658;37.498;2022-12-20T06:59:55;99541.97;;;-7.69;100.00
72423;BME280;60413;55.658;37.498;2022-12-20T07:02:20;99575.59;;;-7.62;100.00
72423;BME280;60413;55.658;37.498;2022-12-20T07:04:46;99554.31;;;-7.63;100.00
72423;BME280;60413;55.658;37.498;2022-12-20T07:07:12;99558.28;;;-7.58;100.00
72423;BME280;60413;55.658;37.498;2022-12-20T07:09:38;99552.28;;;-7.46;100.00
72423;BME280;60413;55.658;37.498;2022-12-20T07:12:07;99545.84;;;-7.52;100.00
72423;BME280;60413;55.658;37.498;2022-12-20T07:14:33;99561.72;;;-7.35;100.00
72423;BME280;60413;55.658;37.498;2022-12-20T07:16:59;99523.75;;;-7.53;100.00
72423;BME280;60413;55.658;37.498;2022-12-20T07:19:25;99515.72;;;-7.59;100.00
72423;BME280;60413;55.658;37.498;2022-12-20T07:21:51;99518.28;;;-7.59;100.00
72423;BME280;60413;55.658;37.498;2022-12-20T07:24:17;99499.28;;;-7.68;100.00
72423;BME280;60413;55.658;37.498;2022-12-20T07:26:44;99494.19;;;-7.57;100.00
72423;BME280;60413;55.658;37.498;2022-12-20T07:29:11;99473.81;;;-7.70;100.00
72423;BME280;60413;55.658;37.498;2022-12-20T07:31:37;99495.72;;;-7.54;100.00
72423;BME280;60413;55.658;37.498;2022-12-20T07:34:03;99489.78;;;-7.55;100.00
72423;BME280;60413;55.658;37.498;2022-12-20T07:36:29;99502.94;;;-7.37;100.00
72423;BME280;60413;55.658;37.498;2022-12-20T07:38:54;99489.78;;;-7.43;100.00
72423;BME280;60413;55.658;37.498;2022-12-20T07:41:20;99499.25;;;-7.33;100.00
72423;BME280;60413;55.658;37.498;2022-12-20T07:43:46;99474.09;;;-7.39;100.00
72423;BME280;60413;55.658;37.498;2022-12-20T07:46:13;99474.09;;;-7.39;100.00
72423;BME280;60413;55.658;37.498;2022-12-20T07:48:39;99452.56;;;-7.48;100.00
72423;BME280;60413;55.658;37.498;2022-12-20T07:51:07;99475.97;;;-7.30;100.00
72423;BME280;60413;55.658;37.498;2022-12-20T07:53:38;99428.22;;;-7.65;100.00
72423;BME280;60413;55.658;37.498;2022-12-20T07:56:06;99454.41;;;-7.50;100.00
72423;BME280;60413;55.658;37.498;2022-12-20T07:58:34;99460.84;;;-7.33;100.00
72423;BME280;60413;55.658;37.498;2022-12-20T08:01:05;99434.50;;;-7.57;100.00
72423;BME280;60413;55.658;37.498;2022-12-20T08:03:40;99412.38;;;-7.70;100.00
72423;BME280;60413;55.658;37.498;2022-12-20T08:06:08;99376.66;;;-7.83;100.00
72423;BME280;60413;55.658;37.498;2022-12-20T08:08:37;99403.19;;;-7.61;100.00
72423;BME280;60413;55.658;37.498;2022-12-20T08:11:08;99398.88;;;-7.60;100.00
72423;BME280;60413;55.658;37.498;2022-12-20T08:13:35;99395.88;;;-7.66;100.00
72423;BME280;60413;55.658;37.498;2022-12-20T08:16:00;99391.31;;;-7.62;100.00
72423;BME280;60413;55.658;37.498;2022-12-20T08:18:26;99384.59;;;-7.63;100.00
72423;BME280;60413;55.658;37.498;2022-12-20T08:20:54;99353.53;;;-7.70;100.00
72423;BME280;60413;55.658;37.498;2022-12-20T08:23:20;99401.69;;;-7.52;100.00
72423;BME280;60413;55.658;37.498;2022-12-20T08:25:46;99393.09;;;-7.51;100.00
72423;BME280;60413;55.658;37.498;2022-12-20T08:28:12;99399.59;;;-7.47;100.00
72423;BME280;60413;55.658;37.498;2022-12-20T08:30:38;99428.25;;;-7.31;100.00
72423;BME280;60413;55.658;37.498;2022-12-20T08:33:04;99406.56;;;-6.93;100.00
72423;BME280;60413;55.658;37.498;2022-12-20T08:35:30;99351.94;;;-6.49;100.00
72423;BME280;60413;55.658;37.498;2022-12-20T08:37:55;99346.44;;;-6.03;100.00
72423;BME280;60413;55.658;37.498;2022-12-20T08:40:21;99404.28;;;-5.06;100.00
72423;BME280;60413;55.658;37.498;2022-12-20T08:42:47;99406.97;;;-4.67;100.00
72423;BME280;60413;55.658;37.498;2022-12-20T08:45:13;99363.66;;;-4.52;100.00
72423;BME280;60413;55.658;37.498;2022-12-20T08:47:42;99355.50;;;-3.99;100.00
72423;BME280;60413;55.658;37.498;2022-12-20T08:50:08;99378.25;;;-3.94;100.00
72423;BME280;60413;55.658;37.498;2022-12-20T08:52:34;99338.41;;;-4.00;100.00
72423;BME280;60413;55.658;37.498;2022-12-20T08:54:59;99333.91;;;-3.88;100.00
72423;BME280;60413;55.658;37.498;2022-12-20T08:57:25;99334.00;;;-3.80;100.00
72423;BME280;60413;55.658;37.498;2022-12-20T08:59:53;99353.78;;;-3.61;100.00
72423;BME280;60413;55.658;37.498;2022-12-20T09:02:22;99334.00;;;-3.70;100.00
72423;BME280;60413;55.658;37.498;2022-12-20T09:04:48;99304.50;;;-3.85;100.00
72423;BME280;60413;55.658;37.498;2022-12-20T09:07:13;99322.81;;;-3.98;100.00
72423;BME280;60413;55.658;37.498;2022-12-20T09:09:39;99312.75;;;-4.58;100.00
72423;BME280;60413;55.658;37.498;2022-12-20T09:12:05;99316.34;;;-5.10;100.00
72423;BME280;60413;55.658;37.498;2022-12-20T09:14:32;99277.66;;;-5.68;100.00
72423;BME280;60413;55.658;37.498;2022-12-20T09:16:57;99283.09;;;-6.02;100.00
72423;BME280;60413;55.658;37.498;2022-12-20T09:19:23;99295.13;;;-6.03;100.00
72423;BME280;60413;55.658;37.498;2022-12-20T09:21:49;99322.94;;;-5.98;100.00
72423;BME280;60413;55.658;37.498;2022-12-20T09:24:15;99308.81;;;-6.13;100.00
72423;BME280;60413;55.658;37.498;2022-12-20T09:26:41;99300.63;;;-6.28;100.00
72423;BME280;60413;55.658;37.498;2022-12-20T09:29:07;99301.66;;;-6.20;100.00
72423;BME280;60413;55.658;37.498;2022-12-20T09:31:33;99285.75;;;-6.35;100.00
72423;BME280;60413;55.658;37.498;2022-12-20T09:33:59;99273.25;;;-6.28;100.00
72423;BME280;60413;55.658;37.498;2022-12-20T09:36:27;99299.59;;;-6.26;100.00
72423;BME280;60413;55.658;37.498;2022-12-20T09:38:53;99282.88;;;-6.41;100.00
72423;BME280;60413;55.658;37.498;2022-12-20T09:41:39;99216.63;;;-6.78;100.00
72423;BME280;60413;55.658;37.498;2022-12-20T09:44:21;99280.31;;;-6.41;100.00
72423;BME280;60413;55.658;37.498;2022-12-20T09:46:54;99266.66;;;-6.21;100.00
72423;BME280;60413;55.658;37.498;2022-12-20T09:49:29;99254.50;;;-5.88;100.00
72423;BME280;60413;55.658;37.498;2022-12-20T10:00:48;99230.00;;;-5.51;100.00
72423;BME280;60413;55.658;37.498;2022-12-20T10:03:27;99213.31;;;-5.86;100.00
72423;BME280;60413;55.658;37.498;2022-12-20T10:05:57;99232.00;;;-5.74;100.00
72423;BME280;60413;55.658;37.498;2022-12-20T10:11:19;99202.47;;;-5.90;100.00
72423;BME280;60413;55.658;37.498;2022-12-20T10:16:59;99181.81;;;-5.98;100.00
72423;BME280;60413;55.658;37.498;2022-12-20T10:22:24;99187.09;;;-6.00;100.00
72423;BME280;60413;55.658;37.498;2022-12-20T10:24:58;99179.13;;;-6.06;100.00
72423;BME280;60413;55.658;37.498;2022-12-20T10:27:24;99191.16;;;-5.97;100.00
72423;BME280;60413;55.658;37.498;2022-12-20T10:29:50;99170.28;;;-6.13;100.00
72423;BME280;60413;55.658;37.498;2022-12-20T10:32:21;99183.97;;;-6.03;100.00
72423;BME280;60413;55.658;37.498;2022-12-20T10:34:54;99184.94;;;-5.94;100.00
72423;BME280;60413;55.658;37.498;2022-12-20T10:37:20;99160.03;;;-6.13;100.00
72423;BME280;60413;55.658;37.498;2022-12-20T10:39:48;99143.78;;;-6.24;100.00
72423;BME280;60413;55.658;37.498;2022-12-20T10:42:36;99145.69;;;-6.26;100.00
72423;BME280;60413;55.658;37.498;2022-12-20T10:45:53;99153.81;;;-6.21;100.00
72423;BME280;60413;55.658;37.498;2022-12-20T10:47:50;99151.06;;;-6.29;100.00
72423;BME280;60413;55.658;37.498;2022-12-20T10:50:19;99131.00;;;-6.45;100.00
72423;BME280;60413;55.658;37.498;2022-12-20T10:55:38;99130.75;;;-6.42;100.00
72423;BME280;60413;55.658;37.498;2022-12-20T10:58:20;99165.84;;;-6.11;100.00
72423;BME280;60413;55.658;37.498;2022-12-20T11:00:46;99139.00;;;-6.07;100.00
72423;BME280;60413;55.658;37.498;2022-12-20T11:03:15;99146.84;;;-5.89;100.00
72423;BME280;60413;55.658;37.498;2022-12-20T11:05:57;99111.38;;;-6.25;100.00
72423;BME280;60413;55.658;37.498;2022-12-20T11:08:25;99133.06;;;-5.98;100.00
72423;BME280;60413;55.658;37.498;2022-12-20T11:13:44;99162.28;;;-5.60;100.00
72423;BME280;60413;55.658;37.498;2022-12-20T11:16:26;99133.09;;;-5.69;100.00
72423;BME280;60413;55.658;37.498;2022-12-20T11:19:37;99130.66;;;-5.70;100.00
72423;BME280;60413;55.658;37.498;2022-12-20T11:22:23;99156.09;;;-5.48;100.00
72423;BME280;60413;55.658;37.498;2022-12-20T11:27:41;99124.31;;;-5.76;100.00
72423;BME280;60413;55.658;37.498;2022-12-20T11:30:18;99135.38;;;-5.75;100.00
72423;BME280;60413;55.658;37.498;2022-12-20T11:44:00;99116.16;;;-6.10;100.00
72423;BME280;60413;55.658;37.498;2022-12-20T11:46:49;99131.78;;;-6.23;100.00
72423;BME280;60413;55.658;37.498;2022-12-20T11:49:35;99120.41;;;-6.30;100.00
72423;BME280;60413;55.658;37.498;2022-12-20T11:54:52;99066.47;;;-6.91;100.00
72423;BME280;60413;55.658;37.498;2022-12-20T11:57:25;99120.34;;;-6.50;100.00
72423;BME280;60413;55.658;37.498;2022-12-20T11:59:56;99092.56;;;-6.76;100.00
72423;BME280;60413;55.658;37.498;2022-12-20T12:02:49;99120.63;;;-6.74;100.00
72423;BME280;60413;55.658;37.498;2022-12-20T12:07:48;99082.56;;;-7.10;100.00
72423;BME280;60413;55.658;37.498;2022-12-20T12:10:43;99104.03;;;-7.01;100.00
72423;BME280;60413;55.658;37.498;2022-12-20T12:13:16;99103.31;;;-7.13;100.00
72423;BME280;60413;55.658;37.498;2022-12-20T12:18:18;99087.25;;;-7.36;100.00
72423;BME280;60413;55.658;37.498;2022-12-20T12:23:31;99102.16;;;-7.41;100.00
72423;BME280;60413;55.658;37.498;2022-12-20T12:26:11;99080.16;;;-7.65;100.00
72423;BME280;60413;55.658;37.498;2022-12-20T12:28:37;99093.81;;;-7.43;100.00
72423;BME280;60413;55.658;37.498;2022-12-20T12:31:07;99098.22;;;-7.45;100.00
72423;BME280;60413;55.658;37.498;2022-12-20T12:33:47;99075.25;;;-7.56;100.00
72423;BME280;60413;55.658;37.498;2022-12-20T12:47:00;99107.31;;;-7.52;100.00
72423;BME280;60413;55.658;37.498;2022-12-20T12:49:29;99092.59;;;-7.60;100.00
72423;BME280;60413;55.658;37.498;2022-12-20T12:51:58;99117.69;;;-7.54;100.00
72423;BME280;60413;55.658;37.498;2022-12-20T12:54:43;99100.88;;;-7.68;100.00
72423;BME280;60413;55.658;37.498;2022-12-20T12:57:17;99080.06;;;-7.74;100.00
72423;BME280;60413;55.658;37.498;2022-12-20T12:59:48;99087.41;;;-7.70;100.00
72423;BME280;60413;55.658;37.498;2022-12-20T13:15:45;99095.28;;;-7.61;100.00
72423;BME280;60413;55.658;37.498;2022-12-20T13:17:53;99033.84;;;-7.94;100.00
72423;BME280;60413;55.658;37.498;2022-12-20T13:20:28;99073.88;;;-7.72;100.00
72423;BME280;60413;55.658;37.498;2022-12-20T13:25:34;99070.03;;;-7.66;100.00
72423;BME280;60413;55.658;37.498;2022-12-20T13:33:44;99066.16;;;-7.60;100.00
72423;BME280;60413;55.658;37.498;2022-12-20T13:38:59;99086.00;;;-7.41;100.00
72423;BME280;60413;55.658;37.498;2022-12-20T13:41:35;99069.06;;;-7.54;100.00
72423;BME280;60413;55.658;37.498;2022-12-20T13:44:18;99064.56;;;-7.61;100.00
72423;BME280;60413;55.658;37.498;2022-12-20T13:47:30;99084.59;;;-7.46;100.00
72423;BME280;60413;55.658;37.498;2022-12-20T13:49:52;99077.03;;;-7.47;100.00
72423;BME280;60413;55.658;37.498;2022-12-20T13:54:49;99030.47;;;-7.83;100.00
72423;BME280;60413;55.658;37.498;2022-12-20T13:57:28;99044.34;;;-7.65;100.00
72423;BME280;60413;55.658;37.498;2022-12-20T14:00:02;99066.72;;;-7.57;100.00
72423;BME280;60413;55.658;37.498;2022-12-20T14:02:34;99085.88;;;-7.40;100.00
72423;BME280;60413;55.658;37.498;2022-12-20T14:05:04;99039.69;;;-7.71;100.00
72423;BME280;60413;55.658;37.498;2022-12-20T14:07:33;99063.94;;;-7.54;100.00
72423;BME280;60413;55.658;37.498;2022-12-20T14:10:03;99027.66;;;-7.80;100.00
72423;BME280;60413;55.658;37.498;2022-12-20T14:12:29;99065.50;;;-7.63;100.00
72423;BME280;60413;55.658;37.498;2022-12-20T14:14:57;99051.19;;;-7.65;100.00
72423;BME280;60413;55.658;37.498;2022-12-20T14:17:29;99058.25;;;-7.57;100.00
72423;BME280;60413;55.658;37.498;2022-12-20T14:22:31;99078.13;;;-7.50;100.00
72423;BME280;60413;55.658;37.498;2022-12-20T14:24:57;99053.25;;;-7.59;100.00
72423;BME280;60413;55.658;37.498;2022-12-20T14:27:24;99057.00;;;-7.63;100.00
72423;BME280;60413;55.658;37.498;2022-12-20T14:29:54;99076.41;;;-7.60;100.00
72423;BME280;60413;55.658;37.498;2022-12-20T14:32:23;98993.25;;;-8.08;100.00
72423;BME280;60413;55.658;37.498;2022-12-20T14:34:49;99021.81;;;-8.03;100.00
72423;BME280;60413;55.658;37.498;2022-12-20T14:42:39;99058.72;;;-7.85;100.00